Time;durP1;ratioP1;P1;durP2;ratioP2;P2;SDS_P1;SDS_P2;PMS_P1;PMS_P2;Temp;Humidity;BMP_temperature;BMP_pressure;BME280_temperature;BME280_humidity;BME280_pressure;Samples;Min_cycle;Max_cycle;Signal;HPM_P1;HPM_P2
2023/06/16 00:01:19;;;;;;;20.77;17.27;;;17.80;94.70;;;;;;4976186;28;20090;-54
2023/06/16 00:03:49;;;;;;;14.02;11.77;;;17.70;94.70;;;;;;4970521;28;20047;-54
2023/06/16 00:06:16;;;;;;;15.15;10.45;;;17.60;94.90;;;;;;4942728;28;20074;-51
2023/06/16 00:08:44;;;;;;;9.60;7.72;;;17.50;95.00;;;;;;4961733;28;20047;-55
2023/06/16 00:11:11;;;;;;;12.90;7.53;;;17.50;95.20;;;;;;4961565;28;20047;-54
2023/06/16 00:13:36;;;;;;;9.65;6.63;;;17.50;95.20;;;;;;4961497;28;20517;-53
2023/06/16 00:16:02;;;;;;;11.63;6.88;;;17.50;95.40;;;;;;4961177;28;20050;-52
2023/06/16 00:18:29;;;;;;;8.95;6.20;;;17.40;95.50;;;;;;4961698;28;20039;-58
2023/06/16 00:20:57;;;;;;;9.35;6.20;;;17.40;95.50;;;;;;4960458;28;20047;-58
2023/06/16 00:23:23;;;;;;;7.22;6.43;;;17.40;95.70;;;;;;4960736;28;20053;-58
2023/06/16 00:25:49;;;;;;;9.40;6.15;;;17.30;95.90;;;;;;4961177;28;20486;-58
2023/06/16 00:28:15;;;;;;;11.02;6.28;;;17.30;96.00;;;;;;4961322;28;20065;-58
2023/06/16 00:30:41;;;;;;;8.07;5.80;;;17.40;96.30;;;;;;4961500;28;20038;-55
2023/06/16 00:33:06;;;;;;;7.40;6.15;;;17.50;96.50;;;;;;4965639;28;20453;-54
2023/06/16 00:35:32;;;;;;;9.70;6.05;;;17.30;96.70;;;;;;4964535;28;20043;-55
2023/06/16 00:37:58;;;;;;;8.18;6.82;;;17.20;96.80;;;;;;4965522;28;20435;-54
2023/06/16 00:40:23;;;;;;;8.60;7.10;;;17.30;97.00;;;;;;4964498;28;20135;-58
2023/06/16 00:42:49;;;;;;;9.70;7.57;;;17.20;97.20;;;;;;4965151;28;20081;-59
2023/06/16 00:45:15;;;;;;;14.63;8.45;;;17.30;97.50;;;;;;4947566;28;20247;-58
2023/06/16 00:47:41;;;;;;;10.88;8.80;;;17.20;97.70;;;;;;4964281;28;20046;-54
2023/06/16 00:50:07;;;;;;;9.93;8.45;;;17.10;97.90;;;;;;4965374;28;20093;-54
2023/06/16 00:52:37;;;;;;;9.10;8.10;;;17.10;98.40;;;;;;4964785;28;20127;-55
2023/06/16 00:55:03;;;;;;;17.98;11.77;;;17.10;98.50;;;;;;4947689;28;20066;-54
2023/06/16 00:57:29;;;;;;;17.90;12.63;;;17.10;98.80;;;;;;4964601;28;20050;-55
2023/06/16 00:59:55;;;;;;;12.98;11.05;;;17.10;99.10;;;;;;4964871;28;20415;-56
2023/06/16 01:02:21;;;;;;;13.18;10.13;;;17.00;99.10;;;;;;4964865;28;20054;-55
2023/06/16 01:04:48;;;;;;;12.20;7.38;;;16.90;99.20;;;;;;4963262;28;20047;-58
2023/06/16 01:07:28;;;;;;;9.98;6.63;;;16.80;99.20;;;;;;4963560;28;20150;-58
2023/06/16 01:10:09;;;;;;;6.70;5.97;;;16.60;99.30;;;;;;4947043;28;20050;-55
2023/06/16 01:13:07;;;;;;;7.05;5.78;;;16.50;99.50;;;;;;5069792;23;20062;-55
2023/06/16 01:15:36;;;;;;;9.38;5.57;;;16.40;99.90;;;;;;4992492;28;20139;-58
2023/06/16 01:18:04;;;;;;;6.90;5.63;;;16.40;99.90;;;;;;5002969;28;20045;-54
2023/06/16 01:20:42;;;;;;;7.72;5.72;;;16.30;99.90;;;;;;5004976;28;20056;-57
2023/06/16 01:23:35;;;;;;;8.43;5.97;;;16.30;99.90;;;;;;4989219;28;20064;-54
2023/06/16 01:26:02;;;;;;;8.95;6.80;;;16.20;99.90;;;;;;4987137;28;20133;-56
2023/06/16 01:28:31;;;;;;;8.95;6.38;;;16.10;99.90;;;;;;5006621;28;20038;-54
2023/06/16 01:31:00;;;;;;;8.88;6.55;;;16.10;99.90;;;;;;5005538;28;20038;-52
2023/06/16 01:33:26;;;;;;;9.68;7.10;;;16.10;99.90;;;;;;5005944;28;20049;-52
2023/06/16 01:35:54;;;;;;;8.40;6.95;;;16.00;99.90;;;;;;5004549;28;20041;-54
2023/06/16 01:38:21;;;;;;;8.82;7.03;;;16.00;99.90;;;;;;4986472;28;20512;-58
2023/06/16 01:40:50;;;;;;;9.82;7.07;;;16.00;99.90;;;;;;4986168;28;20042;-58
2023/06/16 01:43:16;;;;;;;8.25;7.45;;;15.90;99.90;;;;;;4984716;28;20046;-54
2023/06/16 01:45:43;;;;;;;9.95;7.10;;;15.90;99.90;;;;;;4986191;28;20046;-53
2023/06/16 01:48:08;;;;;;;11.20;7.32;;;15.80;99.90;;;;;;4969737;28;20061;-57
2023/06/16 01:50:34;;;;;;;8.52;7.65;;;16.00;99.90;;;;;;4984703;28;20035;-58
2023/06/16 01:53:00;;;;;;;13.68;7.88;;;15.70;99.90;;;;;;4986521;28;20050;-55
2023/06/16 01:55:26;;;;;;;8.93;6.70;;;15.70;99.90;;;;;;4998320;28;20769;-55
2023/06/16 01:57:53;;;;;;;9.63;7.13;;;15.60;99.90;;;;;;4977779;28;20043;-55
2023/06/16 02:00:43;;;;;;;10.35;7.72;;;15.50;99.90;;;;;;4986370;28;20548;-55
2023/06/16 02:03:18;;;;;;;9.00;7.50;;;15.40;99.90;;;;;;4985580;28;20089;-57
2023/06/16 02:05:47;;;;;;;9.40;7.80;;;15.40;99.90;;;;;;4990273;28;20386;-56
2023/06/16 02:08:15;;;;;;;12.40;7.70;;;15.30;99.90;;;;;;4986915;28;20042;-59
2023/06/16 02:10:40;;;;;;;11.88;8.05;;;15.40;99.90;;;;;;4985220;28;20121;-57
2023/06/16 02:13:06;;;;;;;10.35;8.70;;;15.40;99.90;;;;;;4968635;28;20082;-58
2023/06/16 02:15:32;;;;;;;10.25;8.27;;;15.40;99.90;;;;;;4986476;28;20100;-58
2023/06/16 02:17:58;;;;;;;10.68;8.35;;;15.40;99.90;;;;;;5005140;28;20077;-56
2023/06/16 02:20:25;;;;;;;10.15;7.95;;;15.40;99.90;;;;;;5004238;28;20116;-52
2023/06/16 02:22:51;;;;;;;14.88;8.32;;;15.40;99.90;;;;;;5004421;28;20050;-55
2023/06/16 02:25:17;;;;;;;24.83;8.05;;;15.40;99.90;;;;;;5005840;28;20415;-55
2023/06/16 02:27:43;;;;;;;9.50;8.27;;;15.40;99.90;;;;;;5005282;28;20042;-59
2023/06/16 02:30:10;;;;;;;9.93;8.02;;;15.50;99.90;;;;;;5005145;28;20121;-57
2023/06/16 02:32:37;;;;;;;10.48;8.10;;;15.50;99.90;;;;;;5005384;28;20574;-58
2023/06/16 02:35:04;;;;;;;10.57;8.15;;;15.50;99.90;;;;;;5003405;28;20081;-58
2023/06/16 02:37:30;;;;;;;10.27;8.32;;;15.40;99.90;;;;;;5005576;28;20085;-58
2023/06/16 02:39:56;;;;;;;10.38;8.77;;;15.30;99.90;;;;;;5004734;28;20476;-56
2023/06/16 02:42:21;;;;;;;11.13;8.10;;;15.20;99.90;;;;;;5004910;28;20112;-55
2023/06/16 02:44:47;;;;;;;9.40;8.20;;;15.20;99.90;;;;;;5004253;28;20113;-52
2023/06/16 02:47:13;;;;;;;9.48;8.23;;;15.20;99.90;;;;;;5005456;28;20057;-55
2023/06/16 02:49:42;;;;;;;9.90;8.02;;;15.30;99.90;;;;;;5004849;28;20056;-57
2023/06/16 02:52:11;;;;;;;9.05;8.15;;;15.90;99.90;;;;;;5003597;28;20400;-59
2023/06/16 02:54:38;;;;;;;9.48;8.35;;;15.20;99.90;;;;;;5004581;28;20046;-55
2023/06/16 02:57:05;;;;;;;9.93;8.82;;;15.30;99.90;;;;;;5004667;28;20417;-57
2023/06/16 02:59:31;;;;;;;11.63;8.10;;;15.20;99.90;;;;;;4986872;28;20042;-58
2023/06/16 03:01:56;;;;;;;10.02;8.25;;;15.10;99.90;;;;;;5004332;28;20134;-58
2023/06/16 03:04:22;;;;;;;12.10;9.27;;;15.10;99.90;;;;;;5004504;28;20121;-58
2023/06/16 03:06:47;;;;;;;11.73;9.43;;;15.00;99.90;;;;;;5003793;28;20688;-53
2023/06/16 03:09:13;;;;;;;11.20;9.05;;;15.10;99.90;;;;;;5003684;28;20041;-53
2023/06/16 03:11:40;;;;;;;11.93;10.18;;;15.00;99.90;;;;;;5004232;28;20107;-50
2023/06/16 03:14:06;;;;;;;15.25;9.32;;;14.90;99.90;;;;;;5003178;28;20061;-58
2023/06/16 03:16:32;;;;;;;10.20;8.95;;;15.00;99.90;;;;;;5004425;28;20049;-58
2023/06/16 03:18:58;;;;;;;11.23;9.20;;;15.00;99.90;;;;;;5004778;28;20049;-50
2023/06/16 03:21:24;;;;;;;12.85;10.40;;;15.10;99.90;;;;;;5003306;28;20702;-58
2023/06/16 03:23:50;;;;;;;14.15;10.68;;;15.10;99.90;;;;;;5004940;28;20049;-55
2023/06/16 03:26:16;;;;;;;11.98;10.60;;;15.10;99.90;;;;;;4987478;28;20050;-54
2023/06/16 03:28:42;;;;;;;11.95;10.30;;;15.10;99.90;;;;;;5004162;28;20401;-54
2023/06/16 03:31:08;;;;;;;12.90;10.43;;;15.20;99.90;;;;;;5004497;28;20044;-57
2023/06/16 03:33:34;;;;;;;14.52;10.95;;;15.30;99.90;;;;;;5003095;28;20180;-55
2023/06/16 03:35:59;;;;;;;12.50;10.63;;;15.40;99.90;;;;;;4984819;28;20132;-58
2023/06/16 03:38:25;;;;;;;11.73;10.48;;;15.50;99.90;;;;;;5004352;28;20547;-51
2023/06/16 03:40:50;;;;;;;13.73;10.98;;;15.50;99.90;;;;;;5003624;28;20049;-55
2023/06/16 03:43:16;;;;;;;13.50;10.60;;;15.50;99.90;;;;;;5003999;28;20034;-55
2023/06/16 03:45:42;;;;;;;12.10;10.80;;;15.40;99.90;;;;;;5004397;28;20041;-54
2023/06/16 03:48:07;;;;;;;12.20;10.93;;;15.30;99.90;;;;;;5004265;28;20045;-58
2023/06/16 03:50:33;;;;;;;12.93;10.60;;;15.40;99.90;;;;;;5002977;28;20374;-52
2023/06/16 03:52:58;;;;;;;12.55;10.82;;;15.20;99.90;;;;;;5004130;28;20081;-59
2023/06/16 03:55:24;;;;;;;13.68;11.63;;;15.20;99.90;;;;;;5004393;28;20041;-59
2023/06/16 03:57:50;;;;;;;12.98;11.68;;;15.40;99.90;;;;;;5004578;28;20049;-55
2023/06/16 04:00:16;;;;;;;13.88;12.48;;;15.20;99.90;;;;;;5003931;28;20050;-55
2023/06/16 04:02:42;;;;;;;14.00;12.60;;;15.30;99.90;;;;;;5004357;28;20125;-56
2023/06/16 04:05:09;;;;;;;14.93;13.35;;;15.30;99.90;;;;;;5003864;28;20072;-58
2023/06/16 04:07:35;;;;;;;15.65;14.10;;;15.30;99.90;;;;;;5007052;28;20081;-56
2023/06/16 04:10:01;;;;;;;15.80;14.10;;;15.30;99.90;;;;;;4990182;28;20132;-58
2023/06/16 04:12:27;;;;;;;16.67;14.82;;;15.30;99.90;;;;;;5006938;28;20100;-58
2023/06/16 04:14:53;;;;;;;17.00;14.48;;;15.60;99.90;;;;;;5007390;28;20045;-55
2023/06/16 04:17:18;;;;;;;15.07;13.50;;;15.70;99.90;;;;;;5007948;28;20041;-55
2023/06/16 04:19:46;;;;;;;18.58;14.07;;;15.80;99.90;;;;;;5006824;28;20499;-54
2023/06/16 04:22:12;;;;;;;15.98;14.27;;;15.80;99.90;;;;;;5007956;28;20975;-50
2023/06/16 04:24:37;;;;;;;16.15;14.35;;;15.80;99.90;;;;;;5007251;28;20502;-55
2023/06/16 04:27:03;;;;;;;16.80;14.88;;;15.80;99.90;;;;;;5007355;28;20362;-54
2023/06/16 04:29:29;;;;;;;15.20;13.65;;;15.80;99.90;;;;;;5007631;28;20088;-58
2023/06/16 04:31:59;;;;;;;16.73;14.93;;;15.90;99.90;;;;;;5006968;28;20037;-50
2023/06/16 04:34:31;;;;;;;17.27;15.23;;;15.80;99.90;;;;;;5007857;28;20041;-58
2023/06/16 04:36:57;;;;;;;17.40;15.27;;;15.90;99.90;;;;;;5006571;28;20049;-58
2023/06/16 04:39:23;;;;;;;16.80;14.88;;;15.90;99.90;;;;;;5007164;28;20053;-55
2023/06/16 04:41:50;;;;;;;17.85;15.27;;;15.90;99.90;;;;;;4990446;28;20120;-58
2023/06/16 04:44:15;;;;;;;17.08;15.13;;;16.00;99.90;;;;;;5007536;28;20115;-58
2023/06/16 04:46:41;;;;;;;18.52;15.90;;;16.10;99.90;;;;;;5006939;28;20042;-58
2023/06/16 04:49:06;;;;;;;19.10;16.38;;;16.20;99.90;;;;;;5006599;28;20033;-55
2023/06/16 04:51:33;;;;;;;18.80;15.75;;;16.40;99.90;;;;;;5005733;28;20108;-55
2023/06/16 04:54:00;;;;;;;19.60;17.05;;;16.70;99.90;;;;;;5007112;28;20088;-55
2023/06/16 04:56:25;;;;;;;19.73;16.52;;;17.10;99.90;;;;;;4989026;28;20116;-50
2023/06/16 04:58:51;;;;;;;19.30;17.30;;;17.50;99.90;;;;;;5007869;28;20464;-58
2023/06/16 05:01:16;;;;;;;22.13;17.27;;;17.90;99.90;;;;;;5007310;28;20046;-57
2023/06/16 05:03:42;;;;;;;18.17;15.55;;;18.10;99.90;;;;;;5006768;28;20096;-56
2023/06/16 05:06:07;;;;;;;19.55;15.70;;;18.30;99.90;;;;;;5005160;28;20052;-54
2023/06/16 05:08:33;;;;;;;16.83;15.13;;;18.30;99.90;;;;;;4989855;28;20098;-55
2023/06/16 05:10:59;;;;;;;20.67;16.63;;;18.50;99.90;;;;;;5006667;28;20042;-55
2023/06/16 05:13:24;;;;;;;17.83;15.25;;;18.60;99.90;;;;;;5006105;28;20096;-57
2023/06/16 05:15:50;;;;;;;17.83;15.70;;;18.60;99.90;;;;;;5006469;28;20042;-58
2023/06/16 05:18:16;;;;;;;19.73;16.10;;;18.80;99.90;;;;;;5005609;28;20050;-58
2023/06/16 05:20:41;;;;;;;17.60;15.75;;;18.90;99.90;;;;;;5005139;28;20069;-54
2023/06/16 05:23:07;;;;;;;17.42;15.52;;;19.00;99.90;;;;;;5005454;28;20042;-55
2023/06/16 05:25:32;;;;;;;16.40;14.70;;;19.10;99.90;;;;;;5004897;28;20480;-55
2023/06/16 05:27:58;;;;;;;16.77;14.52;;;19.20;99.90;;;;;;4987691;28;20091;-56
2023/06/16 05:30:24;;;;;;;16.50;14.90;;;19.40;99.90;;;;;;5004548;28;20038;-59
2023/06/16 05:32:49;;;;;;;16.38;14.68;;;19.60;99.90;;;;;;5004220;28;20038;-54
2023/06/16 05:35:15;;;;;;;17.35;15.55;;;19.80;99.90;;;;;;5005566;28;20050;-57
2023/06/16 05:37:40;;;;;;;15.30;13.65;;;20.10;99.90;;;;;;5005829;28;20053;-56
2023/06/16 05:40:07;;;;;;;17.05;13.88;;;20.40;99.90;;;;;;5005475;28;20527;-56
2023/06/16 05:42:33;;;;;;;15.80;14.13;;;20.60;99.90;;;;;;5005945;28;20388;-57
2023/06/16 05:44:59;;;;;;;18.90;13.55;;;21.00;99.90;;;;;;4988699;28;20057;-59
2023/06/16 05:47:24;;;;;;;15.50;13.90;;;21.50;99.90;;;;;;5004912;28;20420;-59
2023/06/16 05:49:50;;;;;;;13.57;11.52;;;21.70;98.90;;;;;;5005210;28;20062;-55
2023/06/16 05:52:16;;;;;;;16.45;12.20;;;21.90;98.40;;;;;;5005184;28;20400;-57
2023/06/16 05:54:41;;;;;;;15.55;12.93;;;22.20;97.90;;;;;;4998857;28;20045;-53
2023/06/16 05:57:07;;;;;;;12.35;11.05;;;22.60;97.20;;;;;;4996003;28;20623;-55
2023/06/16 05:59:34;;;;;;;12.35;11.02;;;22.90;96.60;;;;;;4986723;28;20054;-54
2023/06/16 06:02:00;;;;;;;12.90;11.52;;;23.10;95.90;;;;;;4985782;28;20476;-56
2023/06/16 06:04:28;;;;;;;12.80;10.75;;;23.30;95.60;;;;;;4985235;28;20054;-59
2023/06/16 06:06:54;;;;;;;14.02;11.50;;;23.50;95.20;;;;;;4986002;28;20144;-59
2023/06/16 06:09:20;;;;;;;13.05;11.48;;;23.60;94.70;;;;;;4985967;28;20141;-55
2023/06/16 06:11:45;;;;;;;14.27;11.63;;;23.50;94.70;;;;;;4985892;28;20104;-57
2023/06/16 06:14:11;;;;;;;14.10;11.75;;;23.50;94.80;;;;;;4985225;28;20108;-55
2023/06/16 06:16:38;;;;;;;12.40;11.10;;;23.50;94.70;;;;;;4986072;28;20491;-56
2023/06/16 06:19:04;;;;;;;13.00;11.70;;;23.40;94.60;;;;;;4985977;28;20053;-56
2023/06/16 06:21:29;;;;;;;14.43;12.85;;;23.40;94.60;;;;;;4984218;28;20544;-59
2023/06/16 06:23:55;;;;;;;12.45;11.18;;;23.40;94.70;;;;;;4985913;28;20042;-60
2023/06/16 06:26:21;;;;;;;13.95;12.43;;;23.40;94.80;;;;;;4985776;28;20552;-58
2023/06/16 06:28:47;;;;;;;14.50;11.50;;;23.50;94.70;;;;;;4966903;28;20393;-57
2023/06/16 06:31:12;;;;;;;11.10;10.00;;;23.50;94.70;;;;;;4968216;28;20042;-56
2023/06/16 06:33:39;;;;;;;12.70;10.60;;;23.60;94.80;;;;;;4985787;28;20074;-52
2023/06/16 06:36:05;;;;;;;12.60;10.70;;;23.60;94.80;;;;;;4984229;28;20042;-54
2023/06/16 06:38:30;;;;;;;11.07;9.90;;;23.80;94.80;;;;;;4985538;28;20503;-56
2023/06/16 06:40:56;;;;;;;14.70;10.18;;;23.90;94.60;;;;;;4985766;28;20057;-60
2023/06/16 06:43:22;;;;;;;10.68;9.48;;;24.10;94.20;;;;;;4985181;28;20042;-55
2023/06/16 06:45:49;;;;;;;11.93;9.55;;;24.10;94.20;;;;;;4984798;28;20042;-58
2023/06/16 06:48:16;;;;;;;11.32;8.52;;;24.20;94.40;;;;;;4985341;28;20050;-58
2023/06/16 06:50:42;;;;;;;9.57;7.68;;;24.40;94.20;;;;;;4984715;28;20046;-59
2023/06/16 06:53:08;;;;;;;10.60;7.60;;;24.70;93.90;;;;;;4967811;28;20100;-53
2023/06/16 06:55:33;;;;;;;10.45;7.85;;;24.90;93.60;;;;;;4984678;28;20715;-54
2023/06/16 06:57:59;;;;;;;10.90;7.75;;;24.90;93.30;;;;;;4984877;28;20042;-58
2023/06/16 07:00:25;;;;;;;10.05;7.60;;;25.00;93.10;;;;;;4984450;28;20436;-59
2023/06/16 07:02:50;;;;;;;9.63;7.72;;;25.20;92.80;;;;;;4975793;28;20042;-58
2023/06/16 07:05:16;;;;;;;11.10;8.13;;;25.20;92.90;;;;;;4983274;28;20099;-59
2023/06/16 07:07:41;;;;;;;10.73;7.25;;;25.20;92.70;;;;;;4984188;28;20046;-56
2023/06/16 07:10:08;;;;;;;8.57;7.53;;;25.20;92.60;;;;;;4984417;28;20042;-53
2023/06/16 07:12:34;;;;;;;7.97;6.65;;;25.10;92.50;;;;;;4983428;28;20670;-56
2023/06/16 07:14:59;;;;;;;8.20;6.10;;;25.20;92.60;;;;;;4985051;28;20145;-59
2023/06/16 07:17:25;;;;;;;8.20;6.30;;;25.10;92.80;;;;;;4984003;28;20077;-58
2023/06/16 07:19:51;;;;;;;9.93;6.88;;;25.00;92.80;;;;;;4966035;28;20543;-59
2023/06/16 07:22:16;;;;;;;9.52;7.60;;;25.00;92.90;;;;;;4983901;28;20401;-57
2023/06/16 07:24:42;;;;;;;7.63;6.32;;;24.90;92.70;;;;;;4984827;28;20042;-56
2023/06/16 07:27:08;;;;;;;9.85;6.60;;;24.70;92.90;;;;;;4985151;28;20089;-51
2023/06/16 07:29:34;;;;;;;11.40;6.63;;;24.80;92.90;;;;;;4984346;28;20046;-56
2023/06/16 07:32:00;;;;;;;8.23;6.60;;;24.80;92.90;;;;;;4985076;28;20493;-59
2023/06/16 07:34:26;;;;;;;7.78;6.22;;;24.80;93.40;;;;;;4983443;28;20054;-60
2023/06/16 07:36:51;;;;;;;10.13;6.30;;;24.80;93.10;;;;;;4983682;28;20046;-52
2023/06/16 07:39:17;;;;;;;7.72;5.60;;;24.70;93.00;;;;;;4984883;28;20039;-60
2023/06/16 07:41:43;;;;;;;6.82;5.47;;;24.60;93.10;;;;;;4985416;28;20063;-53
2023/06/16 07:44:09;;;;;;;8.00;5.28;;;24.40;93.00;;;;;;4996901;28;20737;-55
2023/06/16 07:46:34;;;;;;;6.70;4.80;;;24.30;93.20;;;;;;4999475;28;20042;-56
2023/06/16 07:49:00;;;;;;;6.47;5.57;;;24.30;93.30;;;;;;5000178;28;20050;-61
2023/06/16 07:51:26;;;;;;;7.28;5.53;;;24.40;93.30;;;;;;4994933;28;20041;-61
2023/06/16 07:53:52;;;;;;;6.93;5.32;;;24.50;93.20;;;;;;4992639;28;20390;-62
2023/06/16 07:56:18;;;;;;;8.00;4.93;;;24.80;93.00;;;;;;4996775;28;20034;-61
2023/06/16 07:58:44;;;;;;;5.72;5.00;;;25.00;92.80;;;;;;4995104;28;20088;-56
2023/06/16 08:01:10;;;;;;;5.55;4.97;;;25.10;92.60;;;;;;4974851;28;20100;-54
2023/06/16 08:03:36;;;;;;;6.20;5.40;;;25.20;92.50;;;;;;4993111;28;20074;-56
2023/06/16 08:06:02;;;;;;;5.72;5.13;;;25.20;92.50;;;;;;4993500;28;20039;-59
2023/06/16 08:08:28;;;;;;;8.30;5.25;;;25.00;92.40;;;;;;4994316;28;20058;-59
2023/06/16 08:10:57;;;;;;;10.02;5.82;;;24.80;91.90;;;;;;4992565;28;20502;-52
2023/06/16 08:13:25;;;;;;;7.20;5.45;;;24.60;91.80;;;;;;4977868;28;20137;-56
2023/06/16 08:15:50;;;;;;;6.25;4.32;;;24.50;91.90;;;;;;5000390;28;20060;-60
2023/06/16 08:18:19;;;;;;;5.53;4.60;;;24.50;91.90;;;;;;4999678;28;20042;-56
2023/06/16 08:20:46;;;;;;;5.70;4.53;;;24.70;91.30;;;;;;4999629;28;20049;-60
2023/06/16 08:23:12;;;;;;;8.55;5.60;;;24.70;91.10;;;;;;4982659;28;20070;-60
2023/06/16 08:25:37;;;;;;;16.23;5.10;;;24.70;90.70;;;;;;5000004;28;20045;-55
2023/06/16 08:28:07;;;;;;;7.85;4.63;;;24.70;90.80;;;;;;5000799;28;20046;-56
2023/06/16 08:30:34;;;;;;;8.50;4.40;;;24.90;90.50;;;;;;5000752;28;20611;-53
2023/06/16 08:32:59;;;;;;;8.82;4.88;;;25.10;89.80;;;;;;4983262;28;20053;-56
2023/06/16 08:35:25;;;;;;;6.28;4.60;;;25.10;88.70;;;;;;4999068;28;20389;-56
2023/06/16 08:37:51;;;;;;;6.28;4.00;;;25.20;87.70;;;;;;5000528;28;20142;-60
2023/06/16 08:40:16;;;;;;;6.32;4.60;;;25.30;87.50;;;;;;4998051;28;20407;-52
2023/06/16 08:42:43;;;;;;;4.95;3.92;;;25.40;87.10;;;;;;4996711;28;20116;-59
2023/06/16 08:45:10;;;;;;;5.00;4.47;;;25.30;86.40;;;;;;5000044;28;20448;-60
2023/06/16 08:47:38;;;;;;;6.35;4.38;;;25.30;86.10;;;;;;5000391;28;20046;-55
2023/06/16 08:50:08;;;;;;;5.18;4.05;;;25.20;86.70;;;;;;4999678;28;20088;-58
2023/06/16 08:52:40;;;;;;;6.13;4.43;;;25.40;85.70;;;;;;5002385;28;20448;-57
2023/06/16 08:55:11;;;;;;;8.00;3.78;;;25.80;85.20;;;;;;5004093;28;20145;-61
2023/06/16 08:57:47;;;;;;;5.88;4.03;;;26.00;84.40;;;;;;5003344;28;20076;-54
2023/06/16 09:00:14;;;;;;;7.40;3.72;;;26.10;83.40;;;;;;4996974;28;20081;-60
2023/06/16 09:02:42;;;;;;;4.78;3.50;;;26.30;84.10;;;;;;4991439;28;20042;-57
2023/06/16 09:05:10;;;;;;;5.55;4.22;;;26.40;83.00;;;;;;4982336;28;20046;-58
2023/06/16 09:07:39;;;;;;;6.47;3.65;;;26.50;81.80;;;;;;4987900;28;20034;-55
2023/06/16 09:10:05;;;;;;;4.72;3.45;;;26.60;81.60;;;;;;4987121;28;20495;-55
2023/06/16 09:12:31;;;;;;;7.32;3.45;;;26.70;80.00;;;;;;4986398;28;20123;-57
2023/06/16 09:14:58;;;;;;;4.38;3.50;;;26.70;81.00;;;;;;4989452;28;21114;-56
2023/06/16 09:17:27;;;;;;;5.78;3.67;;;26.60;79.20;;;;;;4978407;28;20050;-53
2023/06/16 09:19:53;;;;;;;5.93;3.05;;;26.40;78.10;;;;;;4999985;28;20104;-53
2023/06/16 09:22:25;;;;;;;5.20;3.08;;;26.30;79.10;;;;;;5003307;28;20050;-57
2023/06/16 09:25:01;;;;;;;5.80;3.10;;;26.40;79.00;;;;;;5003226;28;20049;-57
2023/06/16 09:27:44;;;;;;;5.35;3.20;;;26.60;78.20;;;;;;5002392;28;20048;-52
2023/06/16 09:30:15;;;;;;;4.43;2.53;;;26.80;77.10;;;;;;5002875;28;20448;-59
2023/06/16 09:32:41;;;;;;;6.50;3.50;;;26.80;76.10;;;;;;4984325;28;20097;-58
2023/06/16 09:35:24;;;;;;;7.47;3.13;;;26.80;76.90;;;;;;4982741;28;20057;-57
2023/06/16 09:37:52;;;;;;;4.32;2.50;;;26.80;74.80;;;;;;4983537;28;20038;-53
2023/06/16 09:40:20;;;;;;;3.45;2.50;;;26.60;72.70;;;;;;5000009;28;20049;-59
2023/06/16 09:42:47;;;;;;;5.18;2.80;;;26.40;73.60;;;;;;5002972;28;20058;-59
2023/06/16 09:45:14;;;;;;;4.35;2.50;;;26.30;73.40;;;;;;5002746;28;20125;-58
2023/06/16 09:47:47;;;;;;;6.93;2.70;;;26.30;73.60;;;;;;5001950;28;20049;-55
2023/06/16 09:50:17;;;;;;;3.22;2.38;;;26.60;73.60;;;;;;4984534;28;20089;-51
2023/06/16 09:52:44;;;;;;;6.65;2.42;;;26.70;73.20;;;;;;4985061;28;20041;-59
2023/06/16 09:55:14;;;;;;;4.25;2.38;;;26.70;73.00;;;;;;5002264;28;20049;-58
2023/06/16 09:57:43;;;;;;;3.95;2.63;;;26.90;73.40;;;;;;4979156;28;20054;-56
2023/06/16 10:00:15;;;;;;;3.03;2.25;;;27.20;73.10;;;;;;4997687;28;20054;-59
2023/06/16 10:02:49;;;;;;;4.03;2.53;;;27.40;73.00;;;;;;4983380;28;20042;-53
2023/06/16 10:05:18;;;;;;;3.47;2.63;;;27.40;73.70;;;;;;4994635;28;20073;-56
2023/06/16 10:07:50;;;;;;;5.60;3.03;;;27.50;73.90;;;;;;4987323;28;20053;-58
2023/06/16 10:10:23;;;;;;;4.07;2.67;;;27.60;73.70;;;;;;4982793;28;20047;-58
2023/06/16 10:12:50;;;;;;;5.00;2.65;;;27.50;73.80;;;;;;4982645;28;20066;-54
2023/06/16 10:15:38;;;;;;;4.05;2.70;;;27.60;73.70;;;;;;4985795;28;20100;-57
2023/06/16 10:18:07;;;;;;;7.45;2.90;;;27.60;73.90;;;;;;5002259;28;20053;-56
2023/06/16 10:20:34;;;;;;;5.10;2.75;;;27.60;73.00;;;;;;4981173;28;20050;-56
2023/06/16 10:23:00;;;;;;;5.53;2.70;;;27.40;72.80;;;;;;4983010;28;20410;-55
2023/06/16 10:25:28;;;;;;;3.83;2.20;;;27.30;73.60;;;;;;4965269;28;20047;-57
2023/06/16 10:27:55;;;;;;;6.35;2.85;;;27.50;73.10;;;;;;4982264;28;20133;-56
2023/06/16 10:30:21;;;;;;;3.55;2.28;;;27.70;73.10;;;;;;4982414;28;20053;-57
2023/06/16 10:32:48;;;;;;;5.43;2.80;;;28.00;72.40;;;;;;4982708;28;20314;-60
2023/06/16 10:35:15;;;;;;;3.40;2.30;;;28.10;72.10;;;;;;4981977;28;20038;-52
2023/06/16 10:37:41;;;;;;;4.35;2.50;;;28.10;70.70;;;;;;4982395;28;20043;-58
2023/06/16 10:40:12;;;;;;;8.55;2.97;;;27.80;71.00;;;;;;4982642;28;20099;-59
2023/06/16 10:42:39;;;;;;;4.72;2.63;;;27.70;71.40;;;;;;4982434;28;20034;-58
2023/06/16 10:45:39;;;;;;;4.35;2.70;;;27.50;71.70;;;;;;4981268;28;20061;-58
2023/06/16 10:48:11;;;;;;;4.18;2.58;;;27.50;72.50;;;;;;4969834;28;20062;-59
2023/06/16 10:50:41;;;;;;;18.45;4.20;;;27.60;72.30;;;;;;4981338;28;20096;-58
2023/06/16 10:53:10;;;;;;;15.00;3.95;;;27.70;72.00;;;;;;4981775;28;20527;-59
2023/06/16 10:55:39;;;;;;;6.35;2.90;;;27.80;72.30;;;;;;4981711;28;20117;-58
2023/06/16 10:58:16;;;;;;;9.77;2.80;;;28.00;72.30;;;;;;4982283;28;20054;-57
2023/06/16 11:00:42;;;;;;;6.22;2.65;;;28.30;71.90;;;;;;4981697;28;20049;-51
2023/06/16 11:03:08;;;;;;;5.40;2.65;;;28.40;71.80;;;;;;4981156;28;20699;-58
2023/06/16 11:05:41;;;;;;;4.93;2.67;;;28.30;71.60;;;;;;4981204;28;20121;-56
2023/06/16 11:08:08;;;;;;;6.35;2.40;;;28.30;73.70;;;;;;4981697;28;20093;-58
2023/06/16 11:10:53;;;;;;;6.70;3.20;;;28.40;72.10;;;;;;4981437;28;20631;-59
2023/06/16 11:13:25;;;;;;;3.35;2.70;;;28.30;71.90;;;;;;4963649;28;20054;-60
2023/06/16 11:15:53;;;;;;;6.45;2.55;;;28.10;70.90;;;;;;4980590;28;20452;-55
2023/06/16 11:18:24;;;;;;;4.82;2.67;;;27.80;71.70;;;;;;4981231;28;20236;-57
2023/06/16 11:20:54;;;;;;;4.70;2.78;;;27.70;72.20;;;;;;4986752;28;20096;-60
2023/06/16 11:23:20;;;;;;;9.82;2.63;;;27.80;72.10;;;;;;4985840;28;20497;-56
2023/06/16 11:25:46;;;;;;;4.93;2.40;;;27.90;71.10;;;;;;4981528;28;20137;-58
2023/06/16 11:28:11;;;;;;;5.13;2.60;;;27.90;69.80;;;;;;4981498;28;20142;-60
2023/06/16 11:30:37;;;;;;;4.57;2.42;;;27.70;69.90;;;;;;4980603;28;20042;-60
2023/06/16 11:33:03;;;;;;;4.55;2.35;;;27.50;70.30;;;;;;4984089;28;20483;-56
2023/06/16 11:35:31;;;;;;;3.90;2.40;;;27.50;70.60;;;;;;4986344;28;20050;-56
2023/06/16 11:37:57;;;;;;;4.60;2.70;;;27.50;71.20;;;;;;4981145;28;20259;-56
2023/06/16 11:40:25;;;;;;;4.40;2.53;;;27.60;70.10;;;;;;4985301;28;20066;-56
2023/06/16 11:42:55;;;;;;;4.22;2.53;;;27.70;69.60;;;;;;4993487;28;20042;-60
2023/06/16 11:45:21;;;;;;;5.28;2.25;;;27.80;69.10;;;;;;4983153;28;20509;-59
2023/06/16 11:47:47;;;;;;;4.47;2.53;;;27.80;68.90;;;;;;4999554;28;20092;-55
2023/06/16 11:50:13;;;;;;;5.07;2.53;;;27.90;68.70;;;;;;5000052;28;20034;-53
2023/06/16 11:52:38;;;;;;;3.45;2.10;;;28.10;68.10;;;;;;4983211;28;20045;-56
2023/06/16 11:55:05;;;;;;;4.80;2.67;;;28.30;68.90;;;;;;4999724;28;20110;-59
2023/06/16 11:57:38;;;;;;;3.90;2.72;;;28.30;67.50;;;;;;4989929;28;20042;-58
2023/06/16 12:00:04;;;;;;;3.92;2.60;;;28.20;66.90;;;;;;4995694;28;20080;-57
2023/06/16 12:02:31;;;;;;;4.00;2.60;;;28.20;67.80;;;;;;4980417;28;20545;-54
2023/06/16 12:04:57;;;;;;;3.88;2.60;;;28.20;67.60;;;;;;4962483;28;20093;-57
2023/06/16 12:07:23;;;;;;;5.38;2.30;;;28.00;66.70;;;;;;5000546;28;20440;-58
2023/06/16 12:09:55;;;;;;;3.67;2.50;;;27.80;67.20;;;;;;4973787;28;20061;-58
2023/06/16 12:12:20;;;;;;;9.95;2.30;;;27.80;67.40;;;;;;4984080;28;20059;-55
2023/06/16 12:14:46;;;;;;;3.63;2.28;;;28.00;68.40;;;;;;4966871;28;20559;-59
2023/06/16 12:17:11;;;;;;;5.65;2.40;;;28.20;68.10;;;;;;4982670;28;20053;-60
2023/06/16 12:19:38;;;;;;;6.22;2.67;;;28.40;67.30;;;;;;4982152;28;20122;-57
2023/06/16 12:22:04;;;;;;;4.00;2.45;;;28.50;67.20;;;;;;4984008;28;20044;-58
2023/06/16 12:24:31;;;;;;;4.97;2.78;;;28.50;65.60;;;;;;4967588;28;20101;-58
2023/06/16 12:26:57;;;;;;;5.88;2.38;;;28.40;64.80;;;;;;4984008;28;20436;-59
2023/06/16 12:29:27;;;;;;;9.55;3.05;;;28.40;65.60;;;;;;4987416;28;20046;-56
2023/06/16 12:31:58;;;;;;;4.43;2.30;;;28.40;64.90;;;;;;4987326;28;20046;-58
2023/06/16 12:34:32;;;;;;;3.47;2.40;;;28.40;64.50;;;;;;4985785;28;20653;-56
2023/06/16 12:37:06;;;;;;;3.47;2.60;;;28.40;65.10;;;;;;4987537;28;20116;-58
2023/06/16 12:39:33;;;;;;;4.70;2.50;;;28.40;63.90;;;;;;4986012;28;20492;-61
2023/06/16 12:42:00;;;;;;;5.20;2.40;;;28.30;64.70;;;;;;4986505;28;20054;-56